LFBD/BOD METAR and TAF weather

Enter ICAO airport designator
Station Type Date Time Source
LFBD METAR 2021/04/18 02:00 UTC NOAA

LFBD 180200Z AUTO 36004KT 340V040 CAVOK 10/04 Q1023 NOSIG


Station Type Date Time Source
LFBD Decoded METAR 2021/04/18 02:00 UTC NOAA

Bordeaux / Merignac, France (LFBD) 44-50N 000-42W 61M
Apr 17, 2021 - 10:00 PM EDT / 2021.04.18 0200 UTC
Wind: from the N (360 degrees) at 5 MPH (4 KT) (direction variable):0
Visibility: greater than 7 mile(s):0
Temperature: 50 F (10 C)
Dew Point: 39 F (4 C)
Relative Humidity: 66%
Pressure (altimeter): 30.21 in. Hg (1023 hPa)
ob: LFBD 180200Z AUTO 36004KT 340V040 CAVOK 10/04 Q1023 NOSIG
cycle: 2

Station Type Date Time Source
LFBD TAF 2021/04/17 18:21 UTC NOAA

TAF TAF LFBD 171700Z 1718/1824 01010KT CAVOK TX18/1814Z TN04/1806Z
BECMG 1718/1720 31005KT

Example: see airport list